Time;durP1;ratioP1;P1;durP2;ratioP2;P2;SDS_P1;SDS_P2;PMS_P1;PMS_P2;Temp;Humidity;BMP_temperature;BMP_pressure;BME280_temperature;BME280_humidity;BME280_pressure;Samples;Min_cycle;Max_cycle;Signal;HPM_P1;HPM_P2
2023/06/26 00:01:11;;;;;;;10.90;8.52;;;;;;;24.60;61.52;101108.63;5055785;28;20029;-84
2023/06/26 00:03:37;;;;;;;10.82;8.57;;;;;;;24.68;61.11;101105.59;5055608;28;20530;-85
2023/06/26 00:06:02;;;;;;;11.82;8.45;;;;;;;24.62;60.90;101116.63;5056005;28;20040;-83
2023/06/26 00:08:28;;;;;;;9.40;7.75;;;;;;;24.70;58.09;101118.06;5055295;28;20111;-84
2023/06/26 00:10:54;;;;;;;11.07;8.18;;;;;;;24.67;57.88;101123.63;5055898;28;20043;-83
2023/06/26 00:13:19;;;;;;;10.95;7.78;;;;;;;24.49;57.81;101084.75;5055385;28;20108;-84
2023/06/26 00:15:45;;;;;;;12.10;7.82;;;;;;;24.74;57.19;101114.28;5037585;28;20033;-83
2023/06/26 00:18:10;;;;;;;9.52;7.40;;;;;;;24.63;57.21;101105.78;5055182;28;20396;-84
2023/06/26 00:20:36;;;;;;;11.45;8.07;;;;;;;24.76;57.05;101116.94;5038017;28;20095;-83
2023/06/26 00:23:03;;;;;;;10.45;7.45;;;;;;;24.61;56.83;101102.25;5055373;28;20060;-83
2023/06/26 00:25:29;;;;;;;9.48;7.78;;;;;;;24.58;56.89;101106.91;5055270;28;20025;-83
2023/06/26 00:27:54;;;;;;;11.15;7.85;;;;;;;24.64;57.12;101110.25;5055273;28;20040;-84
2023/06/26 00:30:20;;;;;;;8.43;7.53;;;;;;;24.75;56.72;101115.16;5055059;28;20056;-83
2023/06/26 00:32:45;;;;;;;9.63;7.57;;;;;;;24.65;56.76;101112.00;5054880;28;20033;-84
2023/06/26 00:35:10;;;;;;;12.10;7.82;;;;;;;24.66;56.59;101107.47;5037353;28;20033;-84
2023/06/26 00:37:36;;;;;;;12.73;8.00;;;;;;;24.55;56.99;101094.44;5033575;28;20429;-83
2023/06/26 00:40:02;;;;;;;9.07;7.57;;;;;;;24.64;56.59;101102.13;5033601;28;20083;-83
2023/06/26 00:42:27;;;;;;;10.70;8.25;;;;;;;24.32;57.13;101075.59;5035094;28;20060;-83
2023/06/26 00:44:53;;;;;;;9.63;7.75;;;;;;;24.38;57.40;101096.97;5033371;28;20037;-83
2023/06/26 00:47:18;;;;;;;10.85;7.95;;;;;;;24.34;57.69;101077.28;5034788;28;20141;-84
2023/06/26 00:49:44;;;;;;;8.48;7.55;;;;;;;24.55;57.25;101112.47;5034590;28;20469;-84
2023/06/26 00:52:09;;;;;;;12.25;6.88;;;;;;;24.66;56.57;101102.94;5034547;28;20026;-83
2023/06/26 00:54:35;;;;;;;9.35;7.20;;;;;;;24.70;56.12;101114.50;5033379;28;20029;-83
2023/06/26 00:57:00;;;;;;;11.73;7.72;;;;;;;24.71;56.17;101111.75;5033504;28;20474;-83
2023/06/26 00:59:25;;;;;;;9.30;7.65;;;;;;;24.63;55.98;101108.50;5034479;28;20030;-83
2023/06/26 01:01:51;;;;;;;10.15;8.38;;;;;;;24.64;56.20;101118.34;5034632;28;20053;-84
2023/06/26 01:04:19;;;;;;;11.00;8.43;;;;;;;24.50;56.78;101109.97;5034697;28;20033;-84
2023/06/26 01:06:48;;;;;;;9.30;8.30;;;;;;;24.44;56.90;101092.19;5034664;28;20461;-84
2023/06/26 01:09:18;;;;;;;15.43;8.68;;;;;;;24.42;56.98;101114.81;5033899;28;20355;-84
2023/06/26 01:11:43;;;;;;;10.95;8.88;;;;;;;24.44;56.79;101121.91;5033322;28;20037;-84
2023/06/26 01:14:09;;;;;;;10.20;8.07;;;;;;;24.44;57.30;101123.72;5034459;28;20037;-84
2023/06/26 01:16:35;;;;;;;12.85;8.77;;;;;;;24.40;57.34;101128.38;5034457;28;20033;-83
2023/06/26 01:19:01;;;;;;;15.02;9.35;;;;;;;24.31;56.96;101120.63;5034705;28;20159;-83
2023/06/26 01:21:32;;;;;;;11.77;8.73;;;;;;;24.26;57.45;101133.44;5034239;28;20037;-83
2023/06/26 01:24:27;;;;;;;10.07;7.83;;;;;;;24.24;56.37;101140.75;5034300;28;20033;-83
2023/06/26 01:26:53;;;;;;;11.10;7.80;;;;;;;23.94;57.45;101130.25;5033985;28;20076;-84
2023/06/26 01:29:20;;;;;;;10.48;7.18;;;;;;;23.86;57.61;101134.19;5032950;28;20115;-84
2023/06/26 01:31:49;;;;;;;11.90;7.07;;;;;;;23.82;57.73;101137.97;5034090;28;20034;-83
2023/06/26 01:34:18;;;;;;;9.60;6.65;;;;;;;23.77;57.65;101148.03;5033877;28;20484;-84
2023/06/26 01:36:46;;;;;;;10.45;7.05;;;;;;;23.59;57.48;101134.28;5033481;28;20440;-84
2023/06/26 01:39:17;;;;;;;12.75;7.40;;;;;;;23.53;57.66;101134.53;5033495;28;20107;-83
2023/06/26 01:41:43;;;;;;;9.70;7.05;;;;;;;23.64;58.26;101151.19;5033699;28;20061;-84
2023/06/26 01:44:21;;;;;;;10.82;6.95;;;;;;;23.61;57.71;101135.13;5033879;28;20088;-84
2023/06/26 01:46:55;;;;;;;10.82;7.00;;;;;;;23.62;58.15;101152.19;5033711;28;20032;-83
2023/06/26 01:49:23;;;;;;;10.73;7.07;;;;;;;23.64;58.09;101144.91;5032654;28;20030;-83
2023/06/26 01:52:00;;;;;;;11.70;7.50;;;;;;;23.57;57.73;101149.66;5033416;28;20116;-84
2023/06/26 01:54:31;;;;;;;9.95;6.97;;;;;;;23.45;57.92;101153.69;5033844;28;20033;-83
2023/06/26 01:56:58;;;;;;;9.43;6.60;;;;;;;23.42;57.97;101150.25;5033578;28;20072;-83
2023/06/26 01:59:25;;;;;;;13.68;6.20;;;;;;;23.39;58.07;101170.13;5033377;28;20041;-83
2023/06/26 02:01:52;;;;;;;10.15;5.70;;;;;;;23.35;57.61;101168.47;5033641;28;20033;-83
2023/06/26 02:04:17;;;;;;;12.73;6.22;;;;;;;23.16;57.92;101154.78;5033567;28;20477;-83
2023/06/26 02:06:43;;;;;;;10.48;5.55;;;;;;;23.28;57.25;101174.16;5033158;28;20064;-83
2023/06/26 02:09:08;;;;;;;10.68;5.68;;;;;;;23.04;57.77;101157.03;5032783;28;20033;-83
2023/06/26 02:11:34;;;;;;;9.50;5.50;;;;;;;23.03;57.48;101161.56;5033478;28;20036;-83
2023/06/26 02:13:59;;;;;;;10.57;5.55;;;;;;;23.12;57.89;101177.41;5033458;28;20462;-83
2023/06/26 02:16:24;;;;;;;8.15;5.60;;;;;;;23.12;57.85;101174.69;5033469;28;20109;-84
2023/06/26 02:18:50;;;;;;;9.80;5.57;;;;;;;22.98;58.64;101167.13;5033080;28;20378;-84
2023/06/26 02:21:15;;;;;;;10.50;5.28;;;;;;;22.93;58.10;101163.72;5033251;28;20040;-83
2023/06/26 02:23:41;;;;;;;8.75;5.30;;;;;;;23.02;58.96;101178.66;5031865;28;20037;-84
2023/06/26 02:26:06;;;;;;;11.82;5.82;;;;;;;22.92;58.88;101167.34;5033116;28;20031;-85
2023/06/26 02:28:33;;;;;;;11.18;5.90;;;;;;;22.94;59.29;101172.66;5032157;28;20384;-84
2023/06/26 02:30:59;;;;;;;8.45;5.20;;;;;;;22.94;59.18;101173.53;5033240;28;20038;-83
2023/06/26 02:33:24;;;;;;;11.15;5.60;;;;;;;22.93;59.96;101179.00;5032890;28;20524;-83
2023/06/26 02:35:52;;;;;;;11.75;6.43;;;;;;;22.96;59.54;101187.00;5036778;28;20129;-84
2023/06/26 02:38:18;;;;;;;12.25;6.10;;;;;;;22.84;59.91;101172.09;5052909;28;20041;-84
2023/06/26 02:40:44;;;;;;;9.60;6.20;;;;;;;22.79;60.28;101174.06;5052955;28;20094;-83
2023/06/26 02:43:09;;;;;;;10.98;6.03;;;;;;;22.91;59.68;101189.84;5052806;28;20473;-84
2023/06/26 02:45:34;;;;;;;9.48;6.32;;;;;;;22.71;59.73;101165.38;5053497;28;20040;-84
2023/06/26 02:48:00;;;;;;;8.07;5.72;;;;;;;22.48;60.07;101149.97;5053049;28;20441;-84
2023/06/26 02:50:25;;;;;;;6.90;5.70;;;;;;;22.66;59.68;101189.78;5052977;28;20562;-83
2023/06/26 02:52:52;;;;;;;12.70;6.05;;;;;;;22.63;59.94;101197.06;5052840;28;20040;-83
2023/06/26 02:55:19;;;;;;;9.00;5.80;;;;;;;22.55;59.91;101202.72;5052745;28;20086;-83
2023/06/26 02:57:44;;;;;;;10.45;5.28;;;;;;;22.57;60.22;101213.41;5052948;28;20037;-84
2023/06/26 03:00:11;;;;;;;9.45;5.60;;;;;;;22.41;60.58;101208.56;5034941;28;20037;-84
2023/06/26 03:02:36;;;;;;;11.60;5.00;;;;;;;22.36;60.17;101204.25;5053170;28;20064;-85
2023/06/26 03:05:02;;;;;;;12.50;5.38;;;;;;;22.27;60.17;101212.59;5052638;28;20036;-84
2023/06/26 03:07:28;;;;;;;9.85;5.07;;;;;;;22.24;60.92;101216.28;5052591;28;20090;-84
2023/06/26 03:09:53;;;;;;;11.38;5.07;;;;;;;22.33;60.38;101224.06;5052772;28;20033;-84
2023/06/26 03:12:18;;;;;;;10.43;4.97;;;;;;;22.17;60.34;101215.59;5052553;28;20037;-84
2023/06/26 03:14:44;;;;;;;7.53;4.85;;;;;;;22.26;60.99;101235.97;5052786;28;20040;-84
2023/06/26 03:17:09;;;;;;;9.55;4.88;;;;;;;22.27;60.92;101231.44;5052930;28;20392;-84
2023/06/26 03:19:35;;;;;;;11.52;4.85;;;;;;;22.07;60.48;101211.41;5052501;28;20447;-84
2023/06/26 03:22:00;;;;;;;12.70;5.25;;;;;;;22.03;61.29;101217.81;5052580;28;20036;-84
2023/06/26 03:24:25;;;;;;;8.98;5.13;;;;;;;21.95;61.03;101212.66;5052185;28;20404;-83
2023/06/26 03:26:51;;;;;;;10.45;4.72;;;;;;;21.89;61.27;101230.81;5052414;28;20036;-84
2023/06/26 03:29:17;;;;;;;10.75;5.18;;;;;;;21.72;61.88;101228.63;5052515;28;20029;-84
2023/06/26 03:31:42;;;;;;;17.45;5.65;;;;;;;21.80;61.72;101231.06;5054511;28;20065;-84
2023/06/26 03:34:07;;;;;;;7.97;4.57;;;;;;;21.88;61.95;101221.81;5055413;28;20025;-84
2023/06/26 03:36:33;;;;;;;10.57;4.90;;;;;;;21.79;61.90;101219.41;5055561;28;20084;-84
2023/06/26 03:38:58;;;;;;;10.70;4.97;;;;;;;21.78;62.47;101230.25;5055229;28;20078;-84
2023/06/26 03:41:24;;;;;;;10.27;5.07;;;;;;;21.77;63.14;101217.72;5055957;28;20029;-84
2023/06/26 03:43:49;;;;;;;9.43;5.10;;;;;;;21.81;63.27;101225.66;5037580;28;20086;-84
2023/06/26 03:46:15;;;;;;;9.43;5.00;;;;;;;21.56;63.73;101193.22;5055428;28;20094;-84
2023/06/26 03:48:40;;;;;;;11.00;4.78;;;;;;;21.70;64.27;101219.69;5055262;28;20119;-85
2023/06/26 03:51:07;;;;;;;11.15;5.07;;;;;;;21.64;64.35;101209.13;5055292;28;20094;-84
2023/06/26 03:53:32;;;;;;;10.30;5.38;;;;;;;21.52;64.77;101210.34;5055445;28;20063;-85
2023/06/26 03:55:58;;;;;;;12.77;5.70;;;;;;;21.46;65.72;101232.06;5055310;28;20061;-84
2023/06/26 03:58:24;;;;;;;14.98;5.40;;;;;;;21.36;65.90;101215.28;5055399;28;20120;-84
2023/06/26 04:00:50;;;;;;;14.70;5.35;;;;;;;21.27;66.79;101226.25;5055365;28;20051;-84
2023/06/26 04:03:15;;;;;;;10.70;5.15;;;;;;;21.29;67.09;101245.06;5055116;28;20537;-85
2023/06/26 04:05:41;;;;;;;9.23;4.88;;;;;;;21.25;67.66;101238.88;5055235;28;20029;-84
2023/06/26 04:08:06;;;;;;;11.05;4.85;;;;;;;21.37;67.43;101252.03;5036884;28;20064;-85
2023/06/26 04:10:31;;;;;;;16.65;5.68;;;;;;;21.15;67.21;101213.16;5055400;28;20035;-84
2023/06/26 04:12:57;;;;;;;12.48;5.30;;;;;;;21.44;67.39;101272.41;5054940;28;20044;-85
2023/06/26 04:15:22;;;;;;;10.32;5.47;;;;;;;21.38;67.84;101269.03;5055189;28;20069;-84
2023/06/26 04:17:48;;;;;;;13.95;5.47;;;;;;;21.41;68.12;101271.59;5054508;28;20525;-84
2023/06/26 04:20:14;;;;;;;11.65;5.28;;;;;;;21.30;68.26;101257.56;5054789;28;20075;-85
2023/06/26 04:22:39;;;;;;;12.30;5.50;;;;;;;21.30;68.98;101273.69;5054790;28;20040;-85
2023/06/26 04:25:05;;;;;;;11.68;5.80;;;;;;;21.35;68.96;101282.53;5036973;28;20037;-85
2023/06/26 04:27:31;;;;;;;14.90;5.43;;;;;;;21.45;68.41;101276.84;5055003;28;20041;-85
2023/06/26 04:29:56;;;;;;;12.27;5.43;;;;;;;21.43;68.97;101289.47;5036402;28;20155;-85
2023/06/26 04:32:22;;;;;;;11.10;5.40;;;;;;;21.50;68.71;101282.16;5036388;28;20106;-85
2023/06/26 04:34:47;;;;;;;11.75;5.35;;;;;;;21.38;69.17;101267.22;5054547;28;20033;-85
2023/06/26 04:37:16;;;;;;;12.90;5.68;;;;;;;21.46;69.60;101284.03;5036253;28;20519;-85
2023/06/26 04:39:42;;;;;;;14.38;5.93;;;;;;;21.47;69.79;101290.28;5053973;28;20037;-84
2023/06/26 04:42:08;;;;;;;16.17;5.43;;;;;;;21.48;70.09;101289.34;5053924;28;20047;-84
2023/06/26 04:44:33;;;;;;;10.18;5.70;;;;;;;21.49;70.16;101294.66;5036792;28;20112;-84
2023/06/26 04:46:59;;;;;;;14.20;5.50;;;;;;;21.49;70.58;101296.47;5054221;28;20079;-84
2023/06/26 04:49:24;;;;;;;18.15;6.25;;;;;;;21.55;70.41;101293.66;5053878;28;20095;-84
2023/06/26 04:51:50;;;;;;;15.05;5.78;;;;;;;21.47;70.95;101282.22;5036786;28;20124;-84
2023/06/26 04:54:16;;;;;;;14.27;6.07;;;;;;;21.36;70.95;101277.13;5054321;28;20033;-85
2023/06/26 04:56:41;;;;;;;17.75;6.03;;;;;;;21.41;71.38;101291.34;5054146;28;20091;-84
2023/06/26 04:59:07;;;;;;;14.57;6.10;;;;;;;21.41;71.29;101299.41;5054812;28;20503;-86
2023/06/26 05:01:32;;;;;;;18.23;6.07;;;;;;;21.32;71.43;101264.69;5036602;28;20037;-85
2023/06/26 05:03:58;;;;;;;16.98;5.93;;;;;;;21.46;71.96;101304.66;5054154;28;20041;-84
2023/06/26 05:06:24;;;;;;;14.88;6.00;;;;;;;21.61;70.76;101304.22;5035989;28;20063;-83
2023/06/26 05:08:49;;;;;;;19.70;6.25;;;;;;;21.57;71.13;101307.91;5053665;28;20150;-84
2023/06/26 05:11:15;;;;;;;18.00;5.82;;;;;;;21.69;70.89;101304.91;5053735;28;20086;-84
2023/06/26 05:13:41;;;;;;;16.02;6.30;;;;;;;21.68;71.38;101311.22;5035849;28;20500;-84
2023/06/26 05:16:08;;;;;;;16.02;6.53;;;;;;;21.87;71.02;101334.88;5053549;28;20047;-84
2023/06/26 05:18:34;;;;;;;15.40;6.00;;;;;;;21.90;70.79;101322.25;5036029;28;20446;-84
2023/06/26 05:21:00;;;;;;;17.15;5.65;;;;;;;21.85;70.76;101318.81;5035800;28;20587;-83
2023/06/26 05:23:26;;;;;;;18.02;6.40;;;;;;;21.98;70.13;101319.34;5053827;28;20060;-84
2023/06/26 05:25:52;;;;;;;19.63;5.93;;;;;;;22.04;70.29;101342.50;5053379;28;20037;-84
2023/06/26 05:28:18;;;;;;;16.85;5.55;;;;;;;22.05;69.87;101338.84;5053336;28;20507;-83
2023/06/26 05:30:44;;;;;;;16.75;6.50;;;;;;;21.96;70.32;101318.47;5053330;28;20041;-84
2023/06/26 05:33:17;;;;;;;20.83;7.03;;;;;;;22.14;69.83;101344.91;5052984;28;20032;-85
2023/06/26 05:35:45;;;;;;;17.35;6.13;;;;;;;22.12;69.26;101341.38;5053338;28;20056;-85
2023/06/26 05:38:11;;;;;;;16.70;5.90;;;;;;;22.12;69.61;101324.31;5052967;28;20384;-85
2023/06/26 05:40:36;;;;;;;18.73;5.97;;;;;;;22.14;68.60;101344.00;5053507;28;20036;-85
2023/06/26 05:43:02;;;;;;;16.67;6.00;;;;;;;22.33;68.08;101347.94;5053211;28;20041;-85
2023/06/26 05:45:28;;;;;;;20.83;6.13;;;;;;;22.33;68.77;101336.28;5053377;28;20044;-85
2023/06/26 05:47:53;;;;;;;14.52;5.65;;;;;;;22.39;68.17;101341.47;5053065;28;20061;-85
2023/06/26 05:50:19;;;;;;;16.92;5.07;;;;;;;22.48;67.22;101366.34;5019036;28;20051;-85
2023/06/26 05:52:45;;;;;;;14.35;5.00;;;;;;;22.52;66.84;101360.84;5052976;28;20047;-85
2023/06/26 05:55:12;;;;;;;17.75;4.90;;;;;;;22.65;66.37;101351.44;5051879;28;20549;-84
2023/06/26 05:57:39;;;;;;;15.20;5.03;;;;;;;22.67;65.47;101357.69;5053175;28;20031;-85
2023/06/26 06:00:10;;;;;;;12.68;4.68;;;;;;;22.77;64.76;101369.03;5052692;28;20036;-84
2023/06/26 06:02:38;;;;;;;14.63;4.72;;;;;;;22.63;64.65;101356.88;5035891;28;20029;-85
2023/06/26 06:05:05;;;;;;;18.83;5.35;;;;;;;22.73;64.21;101358.34;5052623;28;20029;-84
2023/06/26 06:07:34;;;;;;;14.50;5.10;;;;;;;22.89;63.13;101369.53;5035238;28;20078;-85
2023/06/26 06:10:00;;;;;;;15.55;4.60;;;;;;;23.07;62.51;101373.47;5052968;28;20082;-84
2023/06/26 06:12:25;;;;;;;11.63;4.30;;;;;;;23.09;62.72;101373.44;5052541;28;20037;-85
2023/06/26 06:14:51;;;;;;;13.63;4.78;;;;;;;23.28;62.14;101390.75;5052536;28;20036;-85
2023/06/26 06:17:17;;;;;;;14.30;4.28;;;;;;;23.47;61.41;101386.53;5034960;28;20611;-85
2023/06/26 06:19:42;;;;;;;15.02;4.63;;;;;;;23.47;60.77;101385.66;5052856;28;20037;-84
2023/06/26 06:22:08;;;;;;;17.45;4.75;;;;;;;23.52;59.81;101380.97;5052665;28;20361;-84
2023/06/26 06:24:33;;;;;;;16.45;4.15;;;;;;;23.78;60.30;101411.59;5052765;28;20037;-84
2023/06/26 06:26:58;;;;;;;12.27;4.07;;;;;;;23.82;58.43;101405.16;5052499;28;20082;-84
2023/06/26 06:29:24;;;;;;;18.20;4.22;;;;;;;23.93;58.34;101402.94;5052409;28;20029;-84
2023/06/26 06:31:49;;;;;;;14.30;4.07;;;;;;;24.05;57.85;101418.69;5052420;28;20025;-83
2023/06/26 06:34:14;;;;;;;14.55;3.60;;;;;;;24.21;56.66;101406.41;5052563;28;20040;-85
2023/06/26 06:36:40;;;;;;;13.38;3.75;;;;;;;24.33;55.45;101396.97;5052424;28;20049;-84
2023/06/26 06:39:05;;;;;;;13.13;3.88;;;;;;;24.62;54.86;101406.66;5052207;28;20044;-84
2023/06/26 06:41:31;;;;;;;10.07;3.42;;;;;;;24.61;55.47;101404.03;5052622;28;20122;-84
2023/06/26 06:43:56;;;;;;;13.82;3.70;;;;;;;24.64;54.33;101404.81;5034405;28;20835;-83
2023/06/26 06:46:21;;;;;;;16.92;3.70;;;;;;;24.96;54.47;101416.16;5034564;28;20069;-84
2023/06/26 06:48:47;;;;;;;12.35;3.70;;;;;;;25.25;53.35;101433.94;5034743;28;20503;-84
2023/06/26 06:51:13;;;;;;;10.75;3.90;;;;;;;25.39;52.43;101431.53;5052304;28;20037;-84
2023/06/26 06:53:38;;;;;;;12.73;3.90;;;;;;;25.50;52.26;101428.41;5052189;28;20051;-85
2023/06/26 06:56:03;;;;;;;9.40;3.75;;;;;;;25.72;52.27;101426.53;5052692;28;20148;-84
2023/06/26 06:58:30;;;;;;;9.98;3.50;;;;;;;25.60;51.45;101427.06;5055083;28;20044;-84
2023/06/26 07:00:56;;;;;;;9.45;3.75;;;;;;;25.48;51.27;101427.56;5052422;28;20472;-84
2023/06/26 07:03:21;;;;;;;12.43;3.50;;;;;;;25.54;52.12;101431.88;5052615;28;20041;-83
2023/06/26 07:05:47;;;;;;;10.98;3.67;;;;;;;25.54;51.17;101448.97;5053752;28;20376;-85
2023/06/26 07:08:13;;;;;;;9.10;3.42;;;;;;;25.38;51.24;101454.13;5056106;28;20029;-86
2023/06/26 07:10:38;;;;;;;8.82;3.30;;;;;;;25.39;51.33;101455.00;5056150;28;20033;-85
2023/06/26 07:13:03;;;;;;;9.95;3.63;;;;;;;25.45;51.64;101462.91;5038231;28;20033;-86
2023/06/26 07:15:29;;;;;;;10.43;3.70;;;;;;;25.32;51.48;101470.63;5056319;28;20036;-85
2023/06/26 07:17:54;;;;;;;7.93;3.50;;;;;;;25.17;51.96;101464.00;5056306;28;20033;-86
2023/06/26 07:20:20;;;;;;;9.25;3.78;;;;;;;25.07;53.27;101459.00;5056191;28;20116;-86
2023/06/26 07:22:47;;;;;;;12.13;3.97;;;;;;;25.09;52.63;101460.72;5056338;28;20029;-87
2023/06/26 07:25:13;;;;;;;10.70;3.78;;;;;;;25.19;52.84;101469.38;5055739;28;20036;-87
2023/06/26 07:27:40;;;;;;;15.10;4.30;;;;;;;25.30;53.00;101469.81;5056194;28;20037;-88
2023/06/26 07:30:08;;;;;;;12.77;4.05;;;;;;;25.27;52.82;101479.84;5055940;28;20033;-86
2023/06/26 07:32:34;;;;;;;7.28;3.30;;;;;;;25.38;53.04;101477.63;5055873;28;20021;-91
2023/06/26 07:34:59;;;;;;;8.77;3.63;;;;;;;25.51;52.88;101489.69;5055931;28;20029;-87
2023/06/26 07:37:25;;;;;;;11.63;3.80;;;;;;;25.36;52.55;101493.91;5056148;28;20126;-86
2023/06/26 07:39:50;;;;;;;13.75;3.90;;;;;;;25.15;53.35;101490.25;5039131;28;20131;-86
2023/06/26 07:42:16;;;;;;;10.90;4.00;;;;;;;25.08;53.57;101507.66;5059298;28;20366;-88
2023/06/26 07:44:42;;;;;;;9.13;3.80;;;;;;;24.93;54.29;101501.00;5038382;28;20448;-87
2023/06/26 07:47:07;;;;;;;9.98;3.53;;;;;;;24.73;54.63;101504.44;5058769;28;20040;-90
2023/06/26 07:49:32;;;;;;;8.05;3.38;;;;;;;24.72;55.31;101518.03;5039768;28;20083;-92
2023/06/26 07:51:58;;;;;;;8.05;3.72;;;;;;;24.87;55.21;101514.72;5040999;28;20033;-90
2023/06/26 07:54:23;;;;;;;8.50;3.90;;;;;;;25.26;53.60;101513.28;5056898;28;20041;-92
2023/06/26 07:56:55;;;;;;;12.32;4.03;;;;;;;25.51;52.84;101524.88;5059760;28;20457;-91
2023/06/26 07:59:22;;;;;;;10.82;4.15;;;;;;;25.53;51.66;101523.00;5058054;28;20041;-92
2023/06/26 08:01:48;;;;;;;10.32;4.57;;;;;;;25.66;50.26;101499.91;5059359;28;20119;-91
2023/06/26 08:04:14;;;;;;;7.82;4.40;;;;;;;25.94;49.82;101524.00;5055748;28;20045;-90
2023/06/26 08:06:40;;;;;;;9.77;3.90;;;;;;;26.23;48.62;101524.56;5037517;28;20095;-90
2023/06/26 08:09:08;;;;;;;7.38;3.83;;;;;;;26.42;47.54;101514.69;5057524;28;20049;-92
2023/06/26 08:11:34;;;;;;;9.40;3.45;;;;;;;26.42;46.83;101511.09;5060240;28;20033;-91
2023/06/26 08:13:59;;;;;;;9.13;3.10;;;;;;;26.65;47.10;101529.94;5056524;28;20083;-93
2023/06/26 08:16:25;;;;;;;8.25;3.53;;;;;;;26.71;47.80;101534.19;5058256;28;20021;-91
2023/06/26 08:18:51;;;;;;;6.90;2.83;;;;;;;26.83;45.59;101540.91;5054085;28;20060;-91
2023/06/26 08:21:16;;;;;;;10.20;3.00;;;;;;;26.62;45.86;101532.78;5038470;28;20068;-91
2023/06/26 08:23:41;;;;;;;4.05;2.72;;;;;;;26.36;46.34;101539.34;5055463;28;20365;-91
2023/06/26 08:26:07;;;;;;;6.00;3.00;;;;;;;26.20;47.08;101533.72;5055096;28;20052;-89
2023/06/26 08:28:33;;;;;;;5.63;2.70;;;;;;;26.06;47.23;101535.25;5056237;28;20029;-90
2023/06/26 08:30:59;;;;;;;7.07;2.90;;;;;;;25.99;48.12;101534.63;5037130;28;20029;-90
2023/06/26 08:33:24;;;;;;;10.57;2.70;;;;;;;26.09;47.14;101546.84;5038567;28;20033;-91
2023/06/26 08:35:50;;;;;;;8.20;2.60;;;;;;;26.06;47.15;101540.69;5057188;28;20031;-90
2023/06/26 08:38:15;;;;;;;8.23;2.70;;;;;;;26.15;47.10;101540.28;5062192;28;20061;-90
2023/06/26 08:40:41;;;;;;;7.00;2.70;;;;;;;26.34;45.12;101513.28;5057414;28;20389;-91
2023/06/26 08:43:06;;;;;;;6.75;2.70;;;;;;;26.50;44.67;101511.66;5037154;28;20049;-91
2023/06/26 08:45:31;;;;;;;11.13;2.60;;;;;;;26.93;44.23;101539.50;5055187;28;20079;-91
2023/06/26 08:48:00;;;;;;;8.23;2.30;;;;;;;27.10;41.82;101542.34;5036858;28;20036;-91
2023/06/26 08:50:29;;;;;;;8.68;2.30;;;;;;;27.48;40.77;101544.19;5054621;28;20032;-91
2023/06/26 08:53:16;;;;;;;8.02;2.35;;;;;;;27.56;40.85;101559.16;5054613;28;20032;-91
2023/06/26 08:55:43;;;;;;;6.68;2.13;;;;;;;27.81;39.97;101567.00;5054547;28;20091;-91
2023/06/26 08:58:08;;;;;;;3.83;2.00;;;;;;;27.82;38.47;101565.16;5054402;28;20120;-90
2023/06/26 09:00:34;;;;;;;7.68;2.35;;;;;;;27.63;38.73;101560.63;5054524;28;20108;-91
2023/06/26 09:03:03;;;;;;;7.72;2.45;;;;;;;27.60;39.13;101576.16;5054212;28;20041;-90
2023/06/26 09:05:28;;;;;;;9.70;2.10;;;;;;;27.73;38.38;101576.47;5054265;28;20037;-91
2023/06/26 09:07:55;;;;;;;5.55;2.10;;;;;;;27.95;39.33;101564.44;5054539;28;20036;-91
2023/06/26 09:10:21;;;;;;;6.00;1.92;;;;;;;28.09;38.50;101577.34;5055630;28;20033;-91
2023/06/26 09:12:47;;;;;;;5.82;2.10;;;;;;;28.16;38.47;101577.91;5054736;28;20060;-91
2023/06/26 09:15:15;;;;;;;5.90;2.20;;;;;;;28.49;37.04;101579.88;5054554;28;20385;-90
2023/06/26 09:17:42;;;;;;;6.90;1.92;;;;;;;28.28;38.34;101581.84;5054181;28;20029;-91
2023/06/26 09:20:08;;;;;;;6.75;2.30;;;;;;;28.55;37.76;101582.28;5039962;28;20133;-90
2023/06/26 09:22:36;;;;;;;6.90;2.20;;;;;;;28.25;34.87;101574.72;5056443;28;20448;-93
2023/06/26 09:25:03;;;;;;;5.43;1.90;;;;;;;27.86;35.44;101583.06;5054123;28;20464;-91
2023/06/26 09:27:30;;;;;;;6.50;2.00;;;;;;;27.63;36.40;101585.06;5035829;28;20523;-90
2023/06/26 09:29:57;;;;;;;7.65;2.10;;;;;;;27.43;37.13;101571.56;5055046;28;20080;-90
2023/06/26 09:32:24;;;;;;;5.70;2.10;;;;;;;27.24;37.05;101578.78;5053744;28;20029;-90
2023/06/26 09:34:53;;;;;;;5.18;2.17;;;;;;;27.33;37.91;101595.56;5053348;28;20535;-92
2023/06/26 09:37:19;;;;;;;9.18;2.38;;;;;;;27.39;38.35;101581.69;5053255;28;20073;-92
2023/06/26 09:39:44;;;;;;;5.40;2.10;;;;;;;27.56;37.69;101596.28;5053690;28;20108;-95
2023/06/26 09:42:13;;;;;;;6.93;2.00;;;;;;;27.65;37.58;101596.69;5054080;28;20116;-92
2023/06/26 09:44:47;;;;;;;5.60;2.20;;;;;;;27.98;37.41;101606.03;5061332;28;20082;-92
2023/06/26 09:47:16;;;;;;;5.72;1.88;;;;;;;28.11;36.32;101618.91;5060236;28;20028;-92
2023/06/26 09:49:44;;;;;;;6.85;2.17;;;;;;;28.18;35.86;101623.09;5036297;28;20039;-92
2023/06/26 09:52:15;;;;;;;6.65;2.00;;;;;;;28.40;35.60;101598.44;5053409;28;20445;-89
2023/06/26 09:54:40;;;;;;;6.78;2.20;;;;;;;28.73;35.54;101618.50;5037794;28;20380;-94
2023/06/26 09:57:14;;;;;;;5.40;1.88;;;;;;;28.79;36.29;101629.06;5054675;22;20064;-64
2023/06/26 09:59:45;;;;;;;5.05;2.05;;;;;;;28.78;34.04;101624.56;5033037;28;20030;-64
2023/06/26 10:02:11;;;;;;;6.38;2.05;;;;;;;29.06;32.63;101624.00;5032658;28;20542;-64
2023/06/26 10:04:37;;;;;;;6.00;1.98;;;;;;;28.95;33.82;101624.56;5032882;28;20033;-64
2023/06/26 10:07:05;;;;;;;5.72;2.17;;;;;;;29.13;34.32;101625.44;5032922;28;20029;-64
2023/06/26 10:09:32;;;;;;;4.70;2.05;;;;;;;29.36;33.19;101638.66;5032220;28;20056;-64
2023/06/26 10:12:04;;;;;;;7.07;2.20;;;;;;;29.30;32.82;101640.84;5014859;28;20362;-64
2023/06/26 10:14:34;;;;;;;5.03;2.10;;;;;;;29.12;32.59;101634.53;5014484;28;20313;-64
2023/06/26 10:17:01;;;;;;;4.95;2.00;;;;;;;29.02;32.53;101636.88;5032541;28;20026;-64
2023/06/26 10:19:28;;;;;;;6.70;2.25;;;;;;;28.91;32.06;101639.28;5032355;28;20061;-64
2023/06/26 10:21:54;;;;;;;9.40;2.53;;;;;;;28.80;31.67;101638.97;5032799;28;20028;-63
2023/06/26 10:24:22;;;;;;;8.02;1.90;;;;;;;28.94;30.57;101639.97;5032518;28;20025;-64
2023/06/26 10:26:51;;;;;;;5.80;2.00;;;;;;;29.20;30.57;101646.78;5032479;28;20109;-65
2023/06/26 10:29:20;;;;;;;5.45;2.00;;;;;;;29.31;29.78;101639.88;5034719;28;20021;-64
2023/06/26 10:31:55;;;;;;;8.38;2.30;;;;;;;29.55;29.49;101645.78;5037340;28;20479;-65
2023/06/26 10:34:21;;;;;;;4.70;1.90;;;;;;;29.61;29.23;101631.88;5035257;28;20107;-65
2023/06/26 10:36:47;;;;;;;9.35;1.90;;;;;;;29.84;30.25;101631.41;5049107;28;20447;-64
2023/06/26 10:39:13;;;;;;;4.50;1.83;;;;;;;29.81;29.45;101638.91;5048464;28;20032;-64
2023/06/26 10:41:43;;;;;;;3.72;2.00;;;;;;;29.91;29.27;101651.91;5057312;28;20029;-65
2023/06/26 10:44:11;;;;;;;4.72;2.00;;;;;;;29.79;29.32;101649.00;5058879;28;20041;-64
2023/06/26 10:46:50;;;;;;;8.30;2.00;;;;;;;29.66;30.16;101643.38;5058604;28;20107;-65
2023/06/26 10:49:17;;;;;;;6.97;2.00;;;;;;;29.52;29.42;101656.88;5058818;28;20386;-65
2023/06/26 10:51:50;;;;;;;5.40;2.17;;;;;;;29.76;31.35;101663.66;5058756;28;20025;-65
2023/06/26 10:54:17;;;;;;;4.88;2.00;;;;;;;29.92;29.83;101659.09;5058503;28;20512;-65
2023/06/26 10:56:50;;;;;;;5.95;2.03;;;;;;;29.78;29.74;101656.31;5048650;28;20049;-65
2023/06/26 10:59:21;;;;;;;5.35;2.00;;;;;;;29.63;29.33;101657.16;5038970;28;20028;-66
2023/06/26 11:01:57;;;;;;;4.15;2.20;;;;;;;29.64;29.50;101656.22;5038726;28;20108;-65
2023/06/26 11:04:49;;;;;;;8.35;2.15;;;;;;;29.46;30.18;101666.25;5038516;28;20195;-65
2023/06/26 11:07:22;;;;;;;6.88;1.90;;;;;;;28.99;31.10;101677.00;5038912;28;20044;-64
2023/06/26 11:09:56;;;;;;;6.18;2.00;;;;;;;29.01;30.21;101678.69;5038744;28;20072;-64
2023/06/26 11:12:39;;;;;;;8.90;2.10;;;;;;;28.85;30.89;101677.69;5038774;28;20112;-66
2023/06/26 11:15:09;;;;;;;4.65;1.90;;;;;;;28.53;31.72;101669.38;5038551;28;20034;-64
2023/06/26 11:17:36;;;;;;;4.65;2.15;;;;;;;28.78;31.91;101669.00;5038756;28;20136;-64
2023/06/26 11:20:01;;;;;;;5.63;1.95;;;;;;;28.85;31.68;101683.13;5038392;28;20394;-64